Skip Navigation Links Skip Navigation Links

Current Weather

Quakertown, Penn.

For information only: do not use for flight planning or navigation.
Latest weather
Observation time Friday, August 14, 2020 12:15 PM EDT
Local time Friday, August 14, 2020 12:39 PM EDT
Flight conditions Visual Meteorological Conditions
Winds
Wind direction East (80°)
Wind speed 7 mph
Wind gusting to 16 mph
Visibility 10 mi.
Sky condition
Ceiling unlimited
Cloud layer few clouds 3,800 ft.
Temperature 84°F
Dewpoint 66°F
Altimeter 30.02 in.Hg
Derived measurements
Relative humidity 55%
Heat index 87°F
Density altitude 2321 ft.
Remarks
Fully automated report.
METAR KUKT 141615Z AUTO 08006G14KT 10SM FEW038 29/19 A3002 RMK A01

Settings

Location code

InnerDrive.Weather 4.0.6770.0 Release CLR 4.0.30319.42000
Copyright ©2018 Inner Drive Technology. All rights reserved. Portions Copyright ©1986-2018 David Braverman.

Find weather

Site navigation


Skip Navigation Links

Place info

Page info

PayPal - The safer, easier way to pay online!

Return home.

Copyright ©2020 Inner Drive Technology. Purveyors of fine, hand-crafted computer software. Page printed 2020-08-14T16:39:12 UTC.